Time;durP1;ratioP1;P1;durP2;ratioP2;P2;SDS_P1;SDS_P2;PMS_P1;PMS_P2;Temp;Humidity;BMP_temperature;BMP_pressure;BME280_temperature;BME280_humidity;BME280_pressure;Samples;Min_cycle;Max_cycle;Signal;HPM_P1;HPM_P2
2022/03/07 00:01:24;;;;;;;;;;;2.70;70.60;;;;;;5086551;28;19933;-70
2022/03/07 00:03:51;;;;;;;;;;;2.70;70.60;;;;;;5087452;28;20785;-70
2022/03/07 00:06:16;;;;;;;;;;;2.70;70.60;;;;;;5085991;28;19912;-71
2022/03/07 00:08:42;;;;;;;;;;;2.70;70.60;;;;;;5085580;28;19923;-70
2022/03/07 00:11:07;;;;;;;;;;;2.70;70.60;;;;;;5068207;28;19916;-70
2022/03/07 00:13:33;;;;;;;;;;;2.60;70.60;;;;;;5069353;28;20357;-70
2022/03/07 00:15:59;;;;;;;;;;;2.70;70.60;;;;;;5086429;28;19919;-70
2022/03/07 00:18:24;;;;;;;;;;;2.60;70.60;;;;;;5084937;28;20442;-70
2022/03/07 00:20:50;;;;;;;;;;;2.70;70.70;;;;;;5087388;28;19908;-70
2022/03/07 00:23:15;;;;;;;;;;;2.60;70.60;;;;;;5086711;28;19920;-70
2022/03/07 00:25:41;;;;;;;;;;;2.70;70.80;;;;;;5086579;28;19921;-71
2022/03/07 00:28:06;;;;;;;;;;;2.70;70.70;;;;;;5085097;28;19920;-71
2022/03/07 00:30:32;;;;;;;;;;;2.60;70.60;;;;;;5086895;28;19916;-71
2022/03/07 00:32:58;;;;;;;;;;;2.70;70.80;;;;;;5085498;28;20006;-71
2022/03/07 00:35:23;;;;;;;;;;;2.70;70.80;;;;;;5068392;28;19919;-70
2022/03/07 00:37:49;;;;;;;;;;;2.70;70.80;;;;;;5087093;28;19951;-70
2022/03/07 00:40:14;;;;;;;;;;;2.70;70.80;;;;;;5069539;28;19920;-70
2022/03/07 00:42:40;;;;;;;;;;;2.70;70.80;;;;;;5083522;28;19967;-70
2022/03/07 00:45:07;;;;;;;;;;;2.70;70.90;;;;;;5082505;28;19961;-70
2022/03/07 00:47:33;;;;;;;;;;;2.70;71.00;;;;;;5083475;28;20400;-71
2022/03/07 00:49:58;;;;;;;;;;;2.60;70.90;;;;;;5082487;28;19912;-71
2022/03/07 00:52:24;;;;;;;;;;;2.70;71.00;;;;;;5069495;28;19913;-71
2022/03/07 00:54:49;;;;;;;;;;;2.70;70.90;;;;;;5067620;28;19995;-70
2022/03/07 00:57:15;;;;;;;;;;;2.60;70.90;;;;;;5086661;28;19962;-70
2022/03/07 00:59:40;;;;;;;;;;;2.60;70.90;;;;;;5067927;28;19920;-70
2022/03/07 01:02:06;;;;;;;;;;;2.70;71.00;;;;;;5085309;28;20384;-72
2022/03/07 01:04:31;;;;;;;;;;;2.60;71.00;;;;;;5068024;28;19912;-71
2022/03/07 01:06:57;;;;;;;;;;;2.60;71.00;;;;;;5086625;28;19916;-72
2022/03/07 01:09:22;;;;;;;;;;;2.60;71.00;;;;;;5068564;28;19930;-71
2022/03/07 01:11:48;;;;;;;;;;;2.60;71.10;;;;;;5067701;28;20340;-71
2022/03/07 01:14:13;;;;;;;;;;;2.60;71.00;;;;;;5085704;28;19923;-71
2022/03/07 01:16:39;;;;;;;;;;;2.60;71.10;;;;;;5085801;28;19951;-71
2022/03/07 01:19:04;;;;;;;;;;;2.60;71.10;;;;;;5085910;28;20011;-71
2022/03/07 01:21:30;;;;;;;;;;;2.60;71.10;;;;;;5086305;28;20461;-71
2022/03/07 01:23:55;;;;;;;;;;;2.60;71.20;;;;;;5068356;28;19916;-71
2022/03/07 01:26:21;;;;;;;;;;;2.60;71.20;;;;;;5084500;28;19916;-72
2022/03/07 01:28:46;;;;;;;;;;;2.60;71.20;;;;;;5085059;28;19923;-72
2022/03/07 01:31:12;;;;;;;;;;;2.60;71.20;;;;;;5086980;28;20008;-71
2022/03/07 01:33:37;;;;;;;;;;;2.60;71.30;;;;;;5083318;28;20739;-72
2022/03/07 01:36:03;;;;;;;;;;;2.60;71.40;;;;;;5086925;28;19912;-71
2022/03/07 01:38:29;;;;;;;;;;;2.60;71.30;;;;;;5083613;28;19924;-71
2022/03/07 01:40:54;;;;;;;;;;;2.60;71.40;;;;;;5067768;28;20273;-71
2022/03/07 01:43:20;;;;;;;;;;;2.60;71.40;;;;;;5083870;28;19912;-71
2022/03/07 01:45:45;;;;;;;;;;;2.50;71.40;;;;;;5066077;28;20361;-71
2022/03/07 01:48:11;;;;;;;;;;;2.60;71.40;;;;;;5066543;28;20280;-72
2022/03/07 01:50:37;;;;;;;;;;;2.50;71.40;;;;;;5084767;28;20449;-71
2022/03/07 01:53:02;;;;;;;;;;;2.50;71.40;;;;;;5065797;28;19916;-71
2022/03/07 01:55:28;;;;;;;;;;;2.60;71.50;;;;;;5088239;28;20379;-71
2022/03/07 01:57:53;;;;;;;;;;;2.60;71.50;;;;;;5089012;28;20292;-71
2022/03/07 02:00:20;;;;;;;;;;;2.50;71.40;;;;;;5089810;28;19912;-71
2022/03/07 02:02:46;;;;;;;;;;;2.60;71.60;;;;;;5089386;28;19920;-71
2022/03/07 02:05:12;;;;;;;;;;;2.50;71.40;;;;;;5071835;28;20334;-71
2022/03/07 02:07:38;;;;;;;;;;;2.60;71.60;;;;;;5066829;28;20512;-72
2022/03/07 02:10:04;;;;;;;;;;;2.50;71.40;;;;;;5071712;28;20277;-71
2022/03/07 02:12:29;;;;;;;;;;;2.60;71.40;;;;;;5087762;28;19919;-71
2022/03/07 02:14:56;;;;;;;;;;;2.50;71.40;;;;;;5089790;28;19912;-72
2022/03/07 02:17:21;;;;;;;;;;;2.60;71.50;;;;;;5088748;28;20899;-72
2022/03/07 02:19:47;;;;;;;;;;;2.60;71.50;;;;;;5089099;28;19920;-72
2022/03/07 02:22:15;;;;;;;;;;;2.60;71.60;;;;;;5070965;28;19924;-71
2022/03/07 02:24:41;;;;;;;;;;;2.50;71.40;;;;;;5089420;28;19919;-71
2022/03/07 02:27:08;;;;;;;;;;;2.50;71.50;;;;;;5087315;28;20377;-71
2022/03/07 02:29:34;;;;;;;;;;;2.60;71.50;;;;;;5089324;28;19965;-71
2022/03/07 02:31:59;;;;;;;;;;;2.50;71.40;;;;;;5070405;28;19927;-71
2022/03/07 02:34:25;;;;;;;;;;;2.60;71.60;;;;;;5066801;28;19912;-71
2022/03/07 02:36:51;;;;;;;;;;;2.60;71.60;;;;;;5069766;28;19927;-72
2022/03/07 02:39:17;;;;;;;;;;;2.50;71.50;;;;;;5086601;28;20296;-71
2022/03/07 02:41:42;;;;;;;;;;;2.50;71.50;;;;;;5088170;28;19927;-71
2022/03/07 02:44:08;;;;;;;;;;;2.60;71.60;;;;;;5086259;28;19913;-71
2022/03/07 02:46:34;;;;;;;;;;;2.60;71.60;;;;;;5087160;28;19916;-71
2022/03/07 02:48:59;;;;;;;;;;;2.60;71.60;;;;;;5069046;28;19912;-71
2022/03/07 02:51:25;;;;;;;;;;;2.50;71.60;;;;;;5087761;28;20488;-71
2022/03/07 02:53:50;;;;;;;;;;;2.50;71.60;;;;;;5087154;28;19937;-71
2022/03/07 02:56:16;;;;;;;;;;;2.50;71.60;;;;;;5071312;28;19998;-71
2022/03/07 02:58:42;;;;;;;;;;;2.60;71.60;;;;;;5069462;28;19946;-72
2022/03/07 03:01:07;;;;;;;;;;;2.50;71.60;;;;;;5089449;28;19966;-71
2022/03/07 03:03:33;;;;;;;;;;;2.50;71.70;;;;;;5087631;28;19995;-71
2022/03/07 03:05:58;;;;;;;;;;;2.60;71.70;;;;;;5088928;28;19920;-72
2022/03/07 03:08:24;;;;;;;;;;;2.50;71.80;;;;;;5087079;28;20287;-71
2022/03/07 03:10:50;;;;;;;;;;;2.60;71.80;;;;;;5089181;28;19909;-72
2022/03/07 03:13:17;;;;;;;;;;;2.60;71.80;;;;;;5088121;28;19994;-71
2022/03/07 03:15:43;;;;;;;;;;;2.60;71.80;;;;;;5069529;28;19912;-71
2022/03/07 03:18:09;;;;;;;;;;;2.60;71.80;;;;;;5085797;28;19924;-71
2022/03/07 03:20:35;;;;;;;;;;;2.60;71.90;;;;;;5088340;28;19911;-72
2022/03/07 03:23:00;;;;;;;;;;;2.60;71.80;;;;;;5086301;28;19938;-71
2022/03/07 03:25:26;;;;;;;;;;;2.60;71.80;;;;;;5071204;28;19908;-72
2022/03/07 03:27:51;;;;;;;;;;;2.60;71.90;;;;;;5069300;28;19920;-71
2022/03/07 03:30:17;;;;;;;;;;;2.60;71.90;;;;;;5071455;28;20308;-71
2022/03/07 03:32:42;;;;;;;;;;;2.60;71.90;;;;;;5083403;28;19958;-72
2022/03/07 03:35:08;;;;;;;;;;;2.60;71.90;;;;;;5088943;28;20369;-71
2022/03/07 03:37:34;;;;;;;;;;;2.60;71.90;;;;;;5084986;28;19928;-71
2022/03/07 03:39:59;;;;;;;;;;;2.60;71.90;;;;;;5088512;28;19923;-71
2022/03/07 03:42:24;;;;;;;;;;;2.60;71.90;;;;;;5069245;28;19920;-71
2022/03/07 03:44:50;;;;;;;;;;;2.60;71.90;;;;;;5087842;28;19911;-72
2022/03/07 03:47:16;;;;;;;;;;;2.60;71.90;;;;;;5066019;28;20682;-71
2022/03/07 03:49:41;;;;;;;;;;;2.60;72.00;;;;;;5068853;28;20343;-71
2022/03/07 03:52:07;;;;;;;;;;;2.60;71.90;;;;;;5083428;28;19912;-71
2022/03/07 03:54:33;;;;;;;;;;;2.60;71.90;;;;;;5067951;28;19912;-71
2022/03/07 03:56:58;;;;;;;;;;;2.60;71.90;;;;;;5085589;28;20291;-71
2022/03/07 03:59:24;;;;;;;;;;;2.60;71.90;;;;;;5069649;28;20513;-71
2022/03/07 04:01:49;;;;;;;;;;;2.60;72.00;;;;;;5085557;28;19984;-71
2022/03/07 04:04:15;;;;;;;;;;;2.60;71.90;;;;;;5085139;28;20568;-72
2022/03/07 04:06:41;;;;;;;;;;;2.60;72.00;;;;;;5067904;28;19920;-71
2022/03/07 04:09:07;;;;;;;;;;;2.60;72.10;;;;;;5084902;28;19912;-71
2022/03/07 04:11:33;;;;;;;;;;;2.60;72.00;;;;;;5084845;28;19979;-71
2022/03/07 04:13:58;;;;;;;;;;;2.60;72.10;;;;;;5082176;28;19918;-71
2022/03/07 04:16:24;;;;;;;;;;;2.60;72.10;;;;;;5084650;28;19919;-71
2022/03/07 04:18:49;;;;;;;;;;;2.60;72.10;;;;;;5085742;28;19912;-71
2022/03/07 04:21:15;;;;;;;;;;;2.60;72.00;;;;;;5084974;28;19931;-71
2022/03/07 04:23:40;;;;;;;;;;;2.60;72.20;;;;;;5085906;28;19916;-72
2022/03/07 04:26:06;;;;;;;;;;;2.60;72.20;;;;;;5072669;28;19922;-71
2022/03/07 04:28:32;;;;;;;;;;;2.60;72.20;;;;;;5086423;28;20276;-71
2022/03/07 04:30:58;;;;;;;;;;;2.60;72.20;;;;;;5085132;28;19916;-71
2022/03/07 04:33:24;;;;;;;;;;;2.60;72.30;;;;;;5085643;28;19912;-71
2022/03/07 04:35:50;;;;;;;;;;;2.60;72.30;;;;;;5087035;28;20003;-71
2022/03/07 04:38:15;;;;;;;;;;;2.50;72.30;;;;;;5081017;28;20015;-71
2022/03/07 04:40:41;;;;;;;;;;;2.60;72.20;;;;;;5065892;28;19975;-72
2022/03/07 04:43:06;;;;;;;;;;;2.50;72.20;;;;;;5067484;28;20656;-72
2022/03/07 04:45:32;;;;;;;;;;;2.60;72.20;;;;;;5085980;28;19920;-71
2022/03/07 04:47:57;;;;;;;;;;;2.60;72.30;;;;;;5068393;28;19916;-71
2022/03/07 04:50:23;;;;;;;;;;;2.60;72.20;;;;;;5086656;28;19915;-71
2022/03/07 04:52:48;;;;;;;;;;;2.60;72.30;;;;;;5066981;28;20027;-71
2022/03/07 04:55:14;;;;;;;;;;;2.60;72.40;;;;;;5067877;28;19916;-71
2022/03/07 04:57:39;;;;;;;;;;;2.50;72.40;;;;;;5066336;28;19943;-71
2022/03/07 05:00:06;;;;;;;;;;;2.60;72.40;;;;;;5088503;28;20284;-71
2022/03/07 05:02:32;;;;;;;;;;;2.60;72.30;;;;;;5066979;28;19963;-71
2022/03/07 05:04:57;;;;;;;;;;;2.50;72.30;;;;;;5085610;28;19912;-72
2022/03/07 05:07:24;;;;;;;;;;;2.50;72.30;;;;;;5067302;28;19963;-71
2022/03/07 05:09:49;;;;;;;;;;;2.60;72.40;;;;;;5080585;28;19908;-72
2022/03/07 05:12:15;;;;;;;;;;;2.60;72.40;;;;;;5064557;28;20637;-72
2022/03/07 05:14:41;;;;;;;;;;;2.50;72.50;;;;;;5085969;28;19916;-71
2022/03/07 05:17:06;;;;;;;;;;;2.50;72.40;;;;;;5082023;28;19920;-71
2022/03/07 05:19:32;;;;;;;;;;;2.50;72.50;;;;;;5068628;28;19969;-71
2022/03/07 05:21:57;;;;;;;;;;;2.50;72.60;;;;;;5068297;28;20426;-71
2022/03/07 05:24:23;;;;;;;;;;;2.50;72.60;;;;;;5086520;28;19912;-72
2022/03/07 05:26:48;;;;;;;;;;;2.50;72.60;;;;;;5084030;28;19962;-71
2022/03/07 05:29:15;;;;;;;;;;;2.50;72.70;;;;;;5086286;28;19908;-71
2022/03/07 05:31:40;;;;;;;;;;;2.50;72.70;;;;;;5066210;28;20863;-71
2022/03/07 05:34:06;;;;;;;;;;;2.50;72.70;;;;;;5085227;28;19919;-72
2022/03/07 05:36:31;;;;;;;;;;;2.50;72.80;;;;;;5085359;28;19921;-72
2022/03/07 05:38:57;;;;;;;;;;;2.50;72.70;;;;;;5067212;28;19950;-72
2022/03/07 05:41:22;;;;;;;;;;;2.50;72.70;;;;;;5085188;28;19959;-71
2022/03/07 05:43:48;;;;;;;;;;;2.50;72.70;;;;;;5084071;28;19916;-71
2022/03/07 05:46:13;;;;;;;;;;;2.50;72.70;;;;;;5079880;28;19928;-71
2022/03/07 05:48:39;;;;;;;;;;;2.50;72.70;;;;;;5057888;28;20001;-71
2022/03/07 05:51:04;;;;;;;;;;;2.50;72.70;;;;;;5063272;28;20037;-71
2022/03/07 05:53:30;;;;;;;;;;;2.50;72.80;;;;;;5083636;28;19908;-71
2022/03/07 05:55:55;;;;;;;;;;;2.50;72.70;;;;;;5083142;28;20047;-72
2022/03/07 05:58:21;;;;;;;;;;;2.50;72.90;;;;;;5084155;28;19927;-71
2022/03/07 06:00:46;;;;;;;;;;;2.50;72.80;;;;;;5066061;28;19916;-71
2022/03/07 06:03:12;;;;;;;;;;;2.50;72.90;;;;;;5084525;28;19916;-71
2022/03/07 06:05:38;;;;;;;;;;;2.50;72.80;;;;;;5083220;28;20037;-71
2022/03/07 06:08:05;;;;;;;;;;;2.50;72.80;;;;;;5066794;28;19916;-71
2022/03/07 06:10:31;;;;;;;;;;;2.50;72.80;;;;;;5084084;28;20502;-71
2022/03/07 06:12:56;;;;;;;;;;;2.50;72.80;;;;;;5085380;28;19926;-71
2022/03/07 06:15:22;;;;;;;;;;;2.50;72.70;;;;;;5085551;28;19920;-71
2022/03/07 06:17:51;;;;;;;;;;;2.50;73.00;;;;;;5066635;28;20254;-71
2022/03/07 06:20:17;;;;;;;;;;;2.50;72.90;;;;;;5067442;28;19923;-71
2022/03/07 06:22:43;;;;;;;;;;;2.50;72.90;;;;;;5083875;28;19938;-71
2022/03/07 06:25:08;;;;;;;;;;;2.50;72.90;;;;;;5085317;28;20389;-71
2022/03/07 06:27:34;;;;;;;;;;;2.50;73.00;;;;;;5084562;28;20338;-71
2022/03/07 06:29:59;;;;;;;;;;;2.50;72.90;;;;;;5084204;28;19916;-71
2022/03/07 06:32:26;;;;;;;;;;;2.50;72.90;;;;;;5065577;28;19908;-71
2022/03/07 06:34:52;;;;;;;;;;;2.50;72.90;;;;;;5084935;28;19916;-71
2022/03/07 06:37:17;;;;;;;;;;;2.50;72.90;;;;;;5066515;28;19926;-71
2022/03/07 06:39:43;;;;;;;;;;;2.50;72.90;;;;;;5085764;28;19920;-71
2022/03/07 06:42:08;;;;;;;;;;;2.50;72.90;;;;;;5087328;28;19923;-71
2022/03/07 06:44:39;;;;;;;;;;;2.50;72.90;;;;;;5088612;28;19959;-71
2022/03/07 06:47:05;;;;;;;;;;;2.50;72.90;;;;;;5069951;28;20018;-71
2022/03/07 06:49:31;;;;;;;;;;;2.50;72.90;;;;;;5087930;28;19958;-71
2022/03/07 06:51:56;;;;;;;;;;;2.40;72.90;;;;;;5087199;28;19924;-72
2022/03/07 06:54:22;;;;;;;;;;;2.40;73.20;;;;;;5070066;28;20354;-71
2022/03/07 06:56:47;;;;;;;;;;;2.40;74.00;;;;;;5086591;28;19908;-71
2022/03/07 06:59:13;;;;;;;;;;;2.40;73.50;;;;;;5089040;28;19916;-71
2022/03/07 07:01:38;;;;;;;;;;;2.40;73.50;;;;;;5068624;28;20357;-71
2022/03/07 07:04:04;;;;;;;;;;;2.40;73.60;;;;;;5088757;28;19912;-71
2022/03/07 07:06:29;;;;;;;;;;;2.40;73.60;;;;;;5087115;28;20566;-71
2022/03/07 07:08:55;;;;;;;;;;;2.40;73.50;;;;;;5088262;28;19926;-71
2022/03/07 07:11:20;;;;;;;;;;;2.40;73.40;;;;;;5088719;28;20010;-71
2022/03/07 07:13:46;;;;;;;;;;;2.40;73.40;;;;;;5088246;28;19923;-71
2022/03/07 07:16:11;;;;;;;;;;;2.50;73.40;;;;;;5086268;28;20003;-71
2022/03/07 07:18:37;;;;;;;;;;;2.50;74.00;;;;;;5087934;28;19912;-71
2022/03/07 07:21:02;;;;;;;;;;;2.50;73.40;;;;;;5083959;28;20630;-71
2022/03/07 07:23:28;;;;;;;;;;;2.50;73.30;;;;;;5087300;28;20545;-70
2022/03/07 07:25:54;;;;;;;;;;;2.50;73.40;;;;;;5085497;28;20361;-71
2022/03/07 07:28:19;;;;;;;;;;;2.60;73.40;;;;;;5085827;28;19953;-72
2022/03/07 07:30:46;;;;;;;;;;;2.60;73.30;;;;;;5067932;28;20528;-71
2022/03/07 07:33:11;;;;;;;;;;;2.60;73.30;;;;;;5086218;28;19916;-71
2022/03/07 07:35:37;;;;;;;;;;;2.60;73.30;;;;;;5085385;28;20730;-72
2022/03/07 07:38:03;;;;;;;;;;;2.60;73.30;;;;;;5083916;28;19920;-71
2022/03/07 07:40:29;;;;;;;;;;;2.60;73.30;;;;;;5086168;28;20293;-71
2022/03/07 07:42:54;;;;;;;;;;;2.70;73.30;;;;;;5088321;28;19919;-72
2022/03/07 07:45:20;;;;;;;;;;;2.70;73.30;;;;;;5069020;28;20424;-71
2022/03/07 07:47:45;;;;;;;;;;;2.70;73.30;;;;;;5086941;28;19912;-71
2022/03/07 07:50:11;;;;;;;;;;;2.70;73.20;;;;;;5085997;28;20273;-71
2022/03/07 07:52:37;;;;;;;;;;;2.80;73.20;;;;;;5068539;28;19954;-73
2022/03/07 07:55:04;;;;;;;;;;;2.80;73.30;;;;;;5069466;28;19912;-72
2022/03/07 07:57:30;;;;;;;;;;;2.80;73.10;;;;;;5067673;28;19912;-71
2022/03/07 07:59:56;;;;;;;;;;;2.80;73.10;;;;;;5087705;28;19916;-71
2022/03/07 08:02:21;;;;;;;;;;;2.80;73.00;;;;;;5087773;28;19935;-71
2022/03/07 08:04:47;;;;;;;;;;;2.80;73.10;;;;;;5069476;28;21320;-71
2022/03/07 08:07:13;;;;;;;;;;;2.90;73.10;;;;;;5086209;28;20379;-72
2022/03/07 08:09:38;;;;;;;;;;;2.90;73.10;;;;;;5086560;28;19923;-72
2022/03/07 08:12:04;;;;;;;;;;;2.90;73.00;;;;;;5067684;28;19919;-72
2022/03/07 08:14:29;;;;;;;;;;;2.90;73.10;;;;;;5085179;28;20314;-72
2022/03/07 08:16:55;;;;;;;;;;;2.90;73.00;;;;;;5086168;28;19908;-72
2022/03/07 08:19:20;;;;;;;;;;;3.00;73.00;;;;;;5069321;28;20740;-72
2022/03/07 08:21:46;;;;;;;;;;;3.10;72.80;;;;;;5084188;28;19961;-72
2022/03/07 08:24:11;;;;;;;;;;;3.10;72.60;;;;;;5086438;28;19923;-72
2022/03/07 08:26:38;;;;;;;;;;;3.20;72.40;;;;;;5086501;28;19917;-71
2022/03/07 08:29:04;;;;;;;;;;;3.30;72.40;;;;;;5085779;28;19916;-72
2022/03/07 08:31:30;;;;;;;;;;;3.30;72.30;;;;;;5084316;28;19927;-71
2022/03/07 08:33:55;;;;;;;;;;;3.40;72.20;;;;;;5086768;28;19912;-71
2022/03/07 08:36:21;;;;;;;;;;;3.50;72.10;;;;;;5084067;28;19939;-72
2022/03/07 08:38:46;;;;;;;;;;;3.50;72.00;;;;;;5086992;28;20284;-71
2022/03/07 08:41:12;;;;;;;;;;;3.60;72.20;;;;;;5085321;28;20303;-71
2022/03/07 08:43:39;;;;;;;;;;;3.60;72.00;;;;;;5086211;28;20336;-72
2022/03/07 08:46:04;;;;;;;;;;;3.70;71.70;;;;;;5067015;28;19923;-71
2022/03/07 08:48:30;;;;;;;;;;;3.70;71.60;;;;;;5086105;28;19908;-72
2022/03/07 08:50:56;;;;;;;;;;;3.80;71.50;;;;;;5082523;28;19916;-71
2022/03/07 08:53:21;;;;;;;;;;;3.90;71.30;;;;;;5067641;28;19912;-71
2022/03/07 08:55:47;;;;;;;;;;;4.00;71.20;;;;;;5085000;28;19912;-72
2022/03/07 08:58:12;;;;;;;;;;;4.00;71.20;;;;;;5085066;28;19938;-72
2022/03/07 09:00:38;;;;;;;;;;;4.00;71.00;;;;;;5082035;28;19916;-72
2022/03/07 09:03:04;;;;;;;;;;;4.00;71.00;;;;;;5084606;28;19923;-72
2022/03/07 09:05:30;;;;;;;;;;;4.10;71.00;;;;;;5081254;28;19916;-72
2022/03/07 09:07:56;;;;;;;;;;;4.10;71.10;;;;;;5069891;28;19922;-72
2022/03/07 09:10:21;;;;;;;;;;;4.10;71.10;;;;;;5065239;28;20025;-72
2022/03/07 09:12:48;;;;;;;;;;;4.20;71.10;;;;;;5086344;28;19958;-72
2022/03/07 09:15:14;;;;;;;;;;;4.20;70.90;;;;;;5084359;28;19965;-72
2022/03/07 09:17:40;;;;;;;;;;;4.30;71.00;;;;;;5086027;28;19912;-71
2022/03/07 09:20:07;;;;;;;;;;;4.30;70.70;;;;;;5066744;28;19964;-72
2022/03/07 09:22:32;;;;;;;;;;;4.30;70.60;;;;;;5067582;28;19916;-72
2022/03/07 09:24:58;;;;;;;;;;;4.30;70.60;;;;;;5067438;28;19924;-72
2022/03/07 09:27:24;;;;;;;;;;;4.30;70.70;;;;;;5067781;28;19912;-72
2022/03/07 09:29:49;;;;;;;;;;;4.30;70.60;;;;;;5085879;28;19912;-72
2022/03/07 09:32:15;;;;;;;;;;;4.30;70.50;;;;;;5067741;28;19915;-72
2022/03/07 09:34:41;;;;;;;;;;;4.30;70.40;;;;;;5084933;28;19951;-72
2022/03/07 09:37:06;;;;;;;;;;;4.30;70.40;;;;;;5082262;28;19912;-72
2022/03/07 09:39:33;;;;;;;;;;;4.30;70.10;;;;;;5068045;28;19955;-71
2022/03/07 09:41:59;;;;;;;;;;;4.30;70.30;;;;;;5083828;28;19915;-72
2022/03/07 09:44:27;;;;;;;;;;;4.40;70.30;;;;;;5084398;28;19950;-72
2022/03/07 09:46:54;;;;;;;;;;;4.30;70.20;;;;;;5083884;28;19912;-72
2022/03/07 09:49:20;;;;;;;;;;;4.40;70.20;;;;;;5084764;28;19912;-72
2022/03/07 09:51:46;;;;;;;;;;;4.40;70.20;;;;;;5066077;28;20644;-72
2022/03/07 09:54:11;;;;;;;;;;;4.40;70.30;;;;;;5084085;28;19923;-72
2022/03/07 09:56:37;;;;;;;;;;;4.40;70.20;;;;;;5086210;28;19952;-72
2022/03/07 09:59:03;;;;;;;;;;;4.40;70.30;;;;;;5067267;28;20606;-72
2022/03/07 10:01:28;;;;;;;;;;;4.40;70.30;;;;;;5068826;28;19912;-72
2022/03/07 10:04:04;;;;;;;;;;;4.40;70.20;;;;;;5068689;28;19912;-72
2022/03/07 10:06:31;;;;;;;;;;;4.40;70.30;;;;;;5067588;28;19985;-72
2022/03/07 10:08:58;;;;;;;;;;;4.40;70.10;;;;;;5067656;28;19942;-72
2022/03/07 10:11:24;;;;;;;;;;;4.50;70.10;;;;;;5084616;28;19935;-72
2022/03/07 10:13:51;;;;;;;;;;;4.50;70.40;;;;;;5085567;28;19938;-72
2022/03/07 10:16:16;;;;;;;;;;;4.50;70.20;;;;;;5067396;28;19915;-72
2022/03/07 10:18:47;;;;;;;;;;;4.50;70.30;;;;;;5072493;28;21047;-72
2022/03/07 10:21:20;;;;;;;;;;;4.50;70.30;;;;;;5089032;28;19916;-72
2022/03/07 10:23:55;;;;;;;;;;;4.50;70.30;;;;;;5055262;28;20003;-71
2022/03/07 10:26:21;;;;;;;;;;;4.50;70.30;;;;;;5088759;28;19916;-72
2022/03/07 10:28:54;;;;;;;;;;;4.50;70.10;;;;;;5070517;28;19916;-71
2022/03/07 10:31:20;;;;;;;;;;;4.50;70.20;;;;;;5070543;28;19937;-72
2022/03/07 10:33:45;;;;;;;;;;;4.50;70.10;;;;;;5088680;28;20389;-72
2022/03/07 10:36:11;;;;;;;;;;;4.50;70.00;;;;;;5088187;28;19916;-72
2022/03/07 10:38:37;;;;;;;;;;;4.60;69.80;;;;;;5072665;28;19931;-72
2022/03/07 10:41:04;;;;;;;;;;;4.60;69.70;;;;;;5087691;28;20634;-72
2022/03/07 10:43:29;;;;;;;;;;;4.60;69.90;;;;;;5087971;28;19989;-72
2022/03/07 10:45:56;;;;;;;;;;;4.60;69.70;;;;;;5087109;28;20569;-71
2022/03/07 10:48:23;;;;;;;;;;;4.70;69.80;;;;;;5086148;28;19943;-72
2022/03/07 10:50:56;;;;;;;;;;;4.70;69.90;;;;;;5086626;28;19916;-72
2022/03/07 10:53:22;;;;;;;;;;;4.80;69.70;;;;;;5064701;28;19926;-72
2022/03/07 10:55:58;;;;;;;;;;;4.80;69.70;;;;;;5085810;28;19912;-72
2022/03/07 10:58:24;;;;;;;;;;;4.80;69.80;;;;;;5088549;28;19920;-72
2022/03/07 11:00:50;;;;;;;;;;;4.90;69.80;;;;;;5088074;28;19920;-72
2022/03/07 11:03:22;;;;;;;;;;;5.00;69.90;;;;;;5087934;28;19993;-72
2022/03/07 11:05:48;;;;;;;;;;;5.00;69.60;;;;;;5088548;28;19912;-72
2022/03/07 11:08:15;;;;;;;;;;;5.00;69.60;;;;;;5071633;28;20591;-72
2022/03/07 11:10:45;;;;;;;;;;;5.10;69.50;;;;;;5086661;28;19912;-72
2022/03/07 11:13:11;;;;;;;;;;;5.20;69.30;;;;;;5070484;28;20062;-72
2022/03/07 11:15:37;;;;;;;;;;;5.20;69.40;;;;;;5087705;28;19958;-72
2022/03/07 11:18:04;;;;;;;;;;;5.30;69.40;;;;;;5067743;28;19975;-72
2022/03/07 11:20:30;;;;;;;;;;;5.40;69.40;;;;;;5086819;28;21221;-72
2022/03/07 11:22:55;;;;;;;;;;;5.40;69.20;;;;;;5069407;28;19913;-72
2022/03/07 11:25:21;;;;;;;;;;;5.50;69.30;;;;;;5069243;28;19931;-72
2022/03/07 11:27:46;;;;;;;;;;;5.60;69.30;;;;;;5068850;28;19951;-73
2022/03/07 11:30:13;;;;;;;;;;;5.70;69.00;;;;;;5087551;28;19995;-72
2022/03/07 11:32:39;;;;;;;;;;;5.80;68.90;;;;;;5069506;28;20003;-72
2022/03/07 11:35:04;;;;;;;;;;;5.90;69.00;;;;;;5086750;28;20060;-73
2022/03/07 11:37:31;;;;;;;;;;;6.00;68.70;;;;;;5088829;28;20563;-72
2022/03/07 11:39:58;;;;;;;;;;;6.10;68.00;;;;;;5086995;28;19950;-72
2022/03/07 11:42:33;;;;;;;;;;;6.20;68.30;;;;;;5070748;28;19912;-72
2022/03/07 11:45:03;;;;;;;;;;;6.40;67.50;;;;;;5084708;28;19990;-72
2022/03/07 11:47:35;;;;;;;;;;;6.50;67.20;;;;;;5088679;28;19919;-72
2022/03/07 11:50:00;;;;;;;;;;;6.50;67.00;;;;;;5085129;28;20065;-72
2022/03/07 11:52:26;;;;;;;;;;;6.60;66.90;;;;;;5088239;28;20006;-72
2022/03/07 11:54:53;;;;;;;;;;;6.70;66.80;;;;;;5087292;28;19973;-72
2022/03/07 11:57:29;;;;;;;;;;;6.80;66.70;;;;;;5070654;28;20461;-72
2022/03/07 11:59:54;;;;;;;;;;;6.90;66.90;;;;;;5067247;28;19924;-72
2022/03/07 12:02:20;;;;;;;;;;;7.00;66.90;;;;;;5068613;28;19908;-72
2022/03/07 12:04:47;;;;;;;;;;;7.10;66.80;;;;;;5068400;28;21424;-72
2022/03/07 12:07:23;;;;;;;;;;;7.10;66.50;;;;;;5089094;28;19993;-72
2022/03/07 12:09:49;;;;;;;;;;;7.20;67.00;;;;;;5067735;28;19923;-72
2022/03/07 12:12:15;;;;;;;;;;;7.30;67.00;;;;;;5086969;28;19912;-72
2022/03/07 12:14:41;;;;;;;;;;;7.40;67.80;;;;;;5085093;28;19923;-72
2022/03/07 12:17:23;;;;;;;;;;;7.40;67.10;;;;;;5085961;28;19912;-72
2022/03/07 12:19:53;;;;;;;;;;;7.50;67.00;;;;;;5084897;28;20040;-72
2022/03/07 12:22:18;;;;;;;;;;;7.60;67.10;;;;;;5068001;28;20061;-72
2022/03/07 12:24:45;;;;;;;;;;;7.70;67.30;;;;;;5066892;28;19924;-72
2022/03/07 12:27:11;;;;;;;;;;;7.70;67.30;;;;;;5069696;28;20150;-73
2022/03/07 12:29:41;;;;;;;;;;;7.80;67.30;;;;;;5085241;28;20837;-72
2022/03/07 12:32:07;;;;;;;;;;;7.80;67.30;;;;;;5070035;28;19913;-73
2022/03/07 12:34:33;;;;;;;;;;;7.80;67.30;;;;;;5082770;28;20011;-72
2022/03/07 12:36:59;;;;;;;;;;;7.90;67.60;;;;;;5086400;28;19916;-73
2022/03/07 12:39:25;;;;;;;;;;;7.90;67.40;;;;;;5065732;28;19920;-72
2022/03/07 12:41:51;;;;;;;;;;;8.00;67.50;;;;;;5069545;28;20894;-72
2022/03/07 12:44:16;;;;;;;;;;;8.00;67.50;;;;;;5085227;28;19920;-73
2022/03/07 12:46:42;;;;;;;;;;;8.00;67.40;;;;;;5086014;28;19951;-73
2022/03/07 12:49:07;;;;;;;;;;;8.10;67.70;;;;;;5084498;28;20608;-72
2022/03/07 12:51:33;;;;;;;;;;;8.10;67.60;;;;;;5086868;28;19926;-72
2022/03/07 12:54:00;;;;;;;;;;;8.10;67.60;;;;;;5085286;28;19954;-73
2022/03/07 12:56:34;;;;;;;;;;;8.20;67.70;;;;;;5086685;28;20534;-73
2022/03/07 12:58:59;;;;;;;;;;;8.20;67.60;;;;;;5085782;28;21448;-72
2022/03/07 13:01:26;;;;;;;;;;;8.20;67.60;;;;;;5086992;28;19943;-72
2022/03/07 13:03:52;;;;;;;;;;;8.20;67.60;;;;;;5085149;28;19920;-73
2022/03/07 13:06:25;;;;;;;;;;;8.30;67.70;;;;;;5083690;28;19912;-72
2022/03/07 13:08:51;;;;;;;;;;;8.30;67.80;;;;;;5085967;28;19908;-72
2022/03/07 13:11:28;;;;;;;;;;;8.30;67.90;;;;;;5084702;28;19916;-73
2022/03/07 13:13:53;;;;;;;;;;;8.30;67.90;;;;;;5080067;28;19953;-73
2022/03/07 13:16:23;;;;;;;;;;;8.30;68.20;;;;;;5087941;28;20369;-73
2022/03/07 13:18:55;;;;;;;;;;;8.40;67.80;;;;;;5085948;28;19920;-73
2022/03/07 13:21:21;;;;;;;;;;;8.40;67.90;;;;;;5068481;28;20824;-72
2022/03/07 13:23:47;;;;;;;;;;;8.40;68.10;;;;;;5066879;28;19917;-72
2022/03/07 13:26:17;;;;;;;;;;;8.40;68.30;;;;;;5068645;28;19912;-73
2022/03/07 13:28:42;;;;;;;;;;;8.40;68.30;;;;;;5085143;28;20017;-73
2022/03/07 13:31:08;;;;;;;;;;;8.50;68.50;;;;;;5068682;28;19929;-73
2022/03/07 13:33:34;;;;;;;;;;;8.50;68.70;;;;;;5067296;28;19927;-72
2022/03/07 13:36:08;;;;;;;;;;;8.50;68.60;;;;;;5086005;28;20618;-72
2022/03/07 13:38:36;;;;;;;;;;;8.50;68.70;;;;;;5083026;28;19924;-72
2022/03/07 13:41:08;;;;;;;;;;;8.50;68.90;;;;;;5085413;28;19912;-72
2022/03/07 13:43:35;;;;;;;;;;;8.50;68.90;;;;;;5084180;28;19916;-73
2022/03/07 13:46:00;;;;;;;;;;;8.60;68.40;;;;;;5085208;28;19918;-73
2022/03/07 13:48:26;;;;;;;;;;;8.60;68.40;;;;;;5085687;28;19912;-73
2022/03/07 13:50:52;;;;;;;;;;;8.60;68.70;;;;;;5087769;28;19926;-72
2022/03/07 13:53:20;;;;;;;;;;;8.60;68.80;;;;;;5089667;28;20391;-72
2022/03/07 13:55:50;;;;;;;;;;;8.60;69.20;;;;;;5088489;28;19919;-73
2022/03/07 13:58:18;;;;;;;;;;;8.60;69.10;;;;;;5072817;28;19916;-72
2022/03/07 14:00:43;;;;;;;;;;;8.60;69.30;;;;;;5089979;28;20686;-73
2022/03/07 14:03:09;;;;;;;;;;;8.60;68.80;;;;;;5071533;28;19927;-73
2022/03/07 14:05:39;;;;;;;;;;;8.60;69.30;;;;;;5086301;28;19920;-73
2022/03/07 14:08:04;;;;;;;;;;;8.60;69.10;;;;;;5070642;28;19923;-72
2022/03/07 14:10:30;;;;;;;;;;;8.70;69.30;;;;;;5088186;28;20478;-72
2022/03/07 14:12:57;;;;;;;;;;;8.70;69.20;;;;;;5072073;28;20281;-72
2022/03/07 14:15:26;;;;;;;;;;;8.70;69.10;;;;;;5088696;28;19954;-73
2022/03/07 14:17:56;;;;;;;;;;;8.70;69.10;;;;;;5070367;28;20629;-73
2022/03/07 14:20:21;;;;;;;;;;;8.70;69.20;;;;;;5088879;28;19912;-73
2022/03/07 14:22:47;;;;;;;;;;;8.70;69.10;;;;;;5088491;28;19919;-73
2022/03/07 14:25:12;;;;;;;;;;;8.70;69.10;;;;;;5089426;28;19908;-73